Latest Coastal Weather Observations for Rhyll

IDV60701

Issued at 7:11 pm EDT Saturday 29 February 2020 (issued every 10 minutes, with the page automatically refreshed every 10 minutes)

About coastal observations | Map of coastal stations | Coastal observations for VIC | Marine services | Other Formats
Station Details ID: 086373 Name: RHYLL Lat: -38.46 Lon: 145.31 Height: 13.4 m
Data from the previous 72 hours. | See also: Recent months at Rhyll
Date/Time
EDT
Wind Sea
Height
m
Swell Vis
km
Cloud Weather Temp
°C
Press
hPa
Rain since
9am
mm
Dir  Spd
kts
Gust
kts
Height
m
Period
s
Dir
29/07:00pm S 5 9 - - - - - - - 18.4 1013.6 0.0
29/06:30pm S 5 9 - - - - - - - 18.9 1013.7 0.0
29/06:00pm SSW 6 10 - - - - - - - 19.0 1013.6 0.0
29/05:30pm SSW 6 10 - - - - - - - 19.3 1013.8 0.0
29/05:00pm S 5 9 - - - - - - - 19.7 1013.7 0.0
29/04:30pm S 7 11 - - - - - - - 20.0 1013.9 0.0
29/04:00pm SSW 6 11 - - - - - - - 19.1 1014.2 0.0
29/03:30pm S 6 10 - - - - - - - 20.4 1014.4 0.0
29/03:00pm SSW 6 10 - - - - - - - 18.9 1014.9 0.0
29/02:30pm S 2 7 - - - - - - - 19.4 1015.2 0.0
29/02:00pm S 4 6 - - - - - - - 20.0 1015.4 0.0
29/01:30pm S 4 9 - - - - - - - 19.6 1015.5 0.0
29/01:00pm S 3 7 - - - - - - - 19.1 1015.7 0.0
29/12:30pm NNW 6 10 - - - - - - - 19.3 1015.9 0.0
29/12:00pm N 5 8 - - - - - - - 19.3 1016.1 0.0
29/11:30am N 4 5 - - - - - - - 18.1 1016.3 0.0
29/11:00am N 5 6 - - - - - - - 18.8 1016.4 0.0
29/10:30am N 4 5 - - - - - - - 17.1 1016.4 0.0
29/10:00am NNW 4 5 - - - - - - - 17.0 1016.4 0.0
29/09:30am NNW 4 6 - - - - - - - 16.4 1016.3 0.0
29/09:00am WNW 2 3 - - - - - - - 16.4 1016.3 0.4
29/08:30am NW 2 4 - - - - - - - 15.8 1016.2 0.4
29/08:00am CALM 0 1 - - - - - - - 15.7 1016.0 0.4
29/07:30am WNW 1 3 - - - - - - - 15.6 1015.9 0.4
29/07:00am NNW 2 5 - - - - - - - 15.6 1015.6 0.4
29/06:30am NNW 5 7 - - - - - - - 15.8 1015.3 0.4
29/06:00am N 6 7 - - - - - - - 15.8 1015.1 0.4
29/05:30am NNW 3 6 - - - - - - - 15.9 1015.2 0.4
29/05:00am NW 1 3 - - - - - - - 15.7 1015.2 0.4
29/04:30am NW 1 1 - - - - - - - 15.7 1015.6 0.4
29/04:00am NW 1 2 - - - - - - - 15.5 1015.8 0.4
29/03:30am CALM 0 0 - - - - - - - 15.4 1015.8 0.4
29/03:00am CALM 0 0 - - - - - - - 15.5 1015.8 0.4
29/02:30am W 2 3 - - - - - - - 15.4 1016.0 0.4
29/02:00am W 2 3 - - - - - - - 15.3 1016.3 0.4
29/01:30am W 3 4 - - - - - - - 15.1 1016.3 0.4
29/01:00am W 2 3 - - - - - - - 14.9 1016.5 0.4
29/12:30am WNW 1 2 - - - - - - - 14.6 1016.4 0.4
29/12:00am WNW 2 2 - - - - - - - 14.4 1016.3 0.4
 
Date/Time
EDT
Wind Sea
Height
m
Swell Vis
km
Cloud Weather Temp
°C
Press
hPa
Rain since
9am
mm
Dir  Spd
kts
Gust
kts
Height
m
Period
s
Dir
28/11:30pm W 1 2 - - - - - - - 15.2 1016.5 0.4
28/11:00pm W 3 5 - - - - - - - 15.4 1016.7 0.4
28/10:30pm WSW 2 4 - - - - - - - 15.2 1016.6 0.4
28/10:00pm WSW 2 4 - - - - - - - 15.1 1016.7 0.4
28/09:30pm WSW 3 4 - - - - - - - 15.2 1016.4 0.4
28/09:00pm W 2 3 - - - - - - - 15.1 1016.5 0.4
28/08:30pm W 2 2 - - - - - - - 15.1 1016.1 0.4
28/08:00pm WSW 4 5 - - - - - - - 15.8 1015.9 0.4
28/07:30pm SW 4 8 - - - - - - - 16.7 1015.6 0.4
28/07:00pm SW 5 8 - - - - - - - 16.8 1015.4 0.4
28/06:30pm SSW 5 9 - - - - - - - 17.6 1015.1 0.4
28/06:00pm SSW 5 9 - - - - - - - 17.7 1015.0 0.4
28/05:30pm SW 7 11 - - - - - - - 18.3 1014.8 0.4
28/05:00pm SW 8 14 - - - - - - - 18.3 1014.8 0.4
28/04:30pm SW 8 13 - - - - - - - 18.2 1014.8 0.4
28/04:00pm SW 7 11 - - - - - - - 18.8 1014.9 0.4
28/03:30pm WSW 8 16 - - - - - - - 18.5 1015.1 0.4
28/03:00pm SW 9 14 - - - - - - - 18.9 1015.3 0.4
28/02:30pm SW 9 15 - - - - - - - 19.0 1015.3 0.4
28/02:00pm WSW 9 15 - - - - - - - 17.9 1015.2 0.4
28/01:30pm WSW 9 16 - - - - - - - 17.7 1015.4 0.4
28/01:00pm W 5 11 - - - - - - - 16.2 1015.4 0.4
28/12:30pm WSW 10 16 - - - - - - - 16.6 1015.6 0.4
28/12:00pm WSW 8 14 - - - - - - - 17.8 1015.4 0.4
28/11:30am WSW 8 12 - - - - - - - 17.7 1015.2 0.4
28/11:00am WSW 8 15 - - - - - - - 16.1 1015.2 0.4
28/10:30am SW 8 19 - - - - - - - 14.5 1015.1 0.4
28/10:00am WSW 7 12 - - - - - - - 16.9 1014.9 0.0
28/09:30am WSW 4 8 - - - - - - - 15.9 1014.6 0.0
28/09:00am WSW 5 11 - - - - - - - 15.7 1014.2 1.2
28/08:30am WSW 6 11 - - - - - - - 15.3 1014.0 1.2
28/08:00am WNW 2 5 - - - - - - - 14.2 1013.5 1.2
28/07:30am WSW 5 15 - - - - - - - 14.1 1013.1 1.2
28/07:00am SW 8 16 - - - - - - - 14.4 1012.7 1.2
28/06:30am WSW 5 9 - - - - - - - 14.2 1012.0 1.2
28/06:00am W 6 11 - - - - - - - 14.0 1011.5 1.2
28/05:30am WSW 11 20 - - - - - - - 13.4 1011.2 1.2
28/05:00am WSW 7 14 - - - - - - - 13.6 1010.8 1.2
28/04:30am W 8 14 - - - - - - - 14.0 1010.8 1.0
28/04:00am W 6 10 - - - - - - - 13.7 1010.8 1.0
28/03:30am W 8 13 - - - - - - - 14.0 1010.7 0.8
28/03:00am WSW 9 20 - - - - - - Rain 14.2 1010.8 0.6
28/02:30am WSW 7 16 - - - - - - - 14.2 1010.6 0.2
28/02:00am WSW 9 18 - - - - - - - 14.1 1010.7 0.2
28/01:30am W 8 18 - - - - - - - 15.3 1010.4 0.2
28/01:00am W 5 11 - - - - - - - 15.1 1010.4 0.2
28/12:30am W 6 11 - - - - - - - 14.5 1010.3 0.2
28/12:00am WSW 8 16 - - - - - - - 15.0 1010.7 0.0
 
Date/Time
EDT
Wind Sea
Height
m
Swell Vis
km
Cloud Weather Temp
°C
Press
hPa
Rain since
9am
mm
Dir  Spd
kts
Gust
kts
Height
m
Period
s
Dir
27/11:30pm W 7 12 - - - - - - - 15.0 1010.5 0.0
27/11:00pm W 11 17 - - - - - - - 15.1 1010.3 0.0
27/10:30pm W 6 13 - - - - - - - 17.0 1010.3 0.0
27/10:00pm W 7 13 - - - - - - - 16.7 1009.9 0.0
27/09:30pm WNW 7 15 - - - - - - - 17.1 1009.9 0.0
27/09:00pm WNW 6 10 - - - - - - - 16.9 1009.6 0.0
27/08:30pm W 4 9 - - - - - - - 16.6 1009.7 0.0
27/08:00pm W 6 9 - - - - - - - 17.2 1009.5 0.0
27/07:30pm W 7 17 - - - - - - - 17.7 1009.3 0.0
27/07:00pm W 6 15 - - - - - - - 17.8 1009.3 0.0
27/06:30pm W 7 13 - - - - - - - 18.0 1009.4 0.0
27/06:00pm WNW 8 17 - - - - - - - 18.0 1009.1 0.0
27/05:30pm W 6 13 - - - - - - - 18.2 1009.0 0.0
27/05:00pm W 7 15 - - - - - - - 18.1 1008.9 0.0
27/04:30pm W 7 15 - - - - - - - 18.6 1009.2 0.0
27/04:00pm WNW 6 11 - - - - - - - 18.6 1009.2 0.0
27/03:30pm WNW 8 17 - - - - - - - 17.9 1009.4 0.0
27/03:00pm WNW 8 16 - - - - - - - 18.5 1009.8 0.0
27/02:30pm WNW 7 15 - - - - - - - 17.7 1010.0 0.0
27/02:00pm WNW 7 13 - - - - - - - 17.3 1010.3 0.0
27/01:30pm W 9 19 - - - - - - - 16.5 1010.7 0.0
27/01:00pm W 7 15 - - - - - - - 17.0 1011.0 0.0
27/12:30pm WNW 6 11 - - - - - - - 17.2 1010.9 0.0
27/12:00pm NW 6 12 - - - - - - - 16.6 1011.0 0.0
27/11:30am WNW 6 13 - - - - - - - 16.5 1011.4 0.0
27/11:00am WNW 7 14 - - - - - - - 15.8 1011.6 0.0
27/10:30am WNW 5 11 - - - - - - - 15.5 1011.8 0.0
27/10:00am WNW 6 14 - - - - - - - 15.1 1011.8 0.0
27/09:30am WNW 4 10 - - - - - - - 14.9 1011.7 0.0
27/09:00am WNW 6 10 - - - - - - - 14.5 1011.5 1.6
27/08:30am WNW 4 8 - - - - - - - 14.3 1011.5 1.6
27/08:00am NW 5 9 - - - - - - - 14.1 1011.4 1.6
27/07:30am WNW 6 11 - - - - - - - 13.9 1011.2 1.6
27/07:00am WNW 6 12 - - - - - - - 13.7 1011.1 1.6
27/06:30am W 5 11 - - - - - - - 13.5 1011.0 1.6
27/06:00am WNW 5 9 - - - - - - - 13.6 1010.8 1.6
27/05:30am WNW 6 11 - - - - - - - 13.0 1010.8 1.6
27/05:00am W 5 11 - - - - - - - 12.8 1010.8 1.6
27/04:30am WNW 5 7 - - - - - - - 12.5 1010.9 1.6
27/04:00am W 4 6 - - - - - - - 12.1 1011.1 1.6
27/03:30am W 3 6 - - - - - - - 12.3 1011.4 1.6
27/03:00am W 3 5 - - - - - - - 12.2 1011.5 1.6
27/02:30am W 3 5 - - - - - - - 12.3 1011.8 1.6
27/02:00am W 4 6 - - - - - - - 12.6 1012.1 1.6
27/01:30am W 4 7 - - - - - - - 12.7 1012.2 1.6
27/01:00am W 3 6 - - - - - - - 12.6 1012.3 1.6
27/12:30am W 4 5 - - - - - - - 12.8 1012.5 1.6
27/12:00am WSW 4 6 - - - - - - - 12.9 1012.6 1.6
 
Date/Time
EDT
Wind Sea
Height
m
Swell Vis
km
Cloud Weather Temp
°C
Press
hPa
Rain since
9am
mm
Dir  Spd
kts
Gust
kts
Height
m
Period
s
Dir
26/11:30pm W 4 7 - - - - - - - 12.8 1012.7 1.6
26/11:00pm WSW 4 6 - - - - - - - 13.0 1012.8 1.6
26/10:30pm WSW 4 7 - - - - - - - 13.3 1012.8 1.6
26/10:00pm WSW 5 8 - - - - - - - 13.8 1012.8 1.6
26/09:30pm WSW 5 10 - - - - - - - 14.0 1012.9 1.6
26/09:00pm WSW 5 9 - - - - - - - 14.0 1012.8 1.6
26/08:30pm SW 5 9 - - - - - - - 14.0 1012.5 1.6
26/08:00pm WSW 6 9 - - - - - - - 14.4 1012.3 1.6
26/07:30pm WSW 7 11 - - - - - - - 15.1 1011.9 1.6

Other formats

Comma delimited format used in spreadsheet applications
http://www.bom.gov.au/fwo/IDV60701/IDV60701.94892.axf

JavaScript Object Notation format (JSON) in row-major order
http://www.bom.gov.au/fwo/IDV60701/IDV60701.94892.json

Data quality

Most of these data are generated automatically and are frequently updated. Quality checks on data are not normally performed. It is possible for incorrect values to appear. Refer to information at About Latest Weather Observations and please check the disclaimer before using these data.